map of RIA home
RIA - Airport
Location
City:  Santa Maria, Rio Grande do Sul, Brazil
ICAO:SBSM
IATA:RIA

Details
Type:Airport (Aerodrome, Airfield)
Use:Public/Civil, Military
Latitude:2942'41"S (-29.711357)
Longitude:5341'17"W (-53.688152)
Datum:WGS 1984
Elevation:287 ft (87 m)
Variation:15.43W (WMM2015 magnetic declination)
-0.17 annual change
Runways:2
Longest:8858 × 148 ft (2700 × 45 m), paved

Time
Time Zone:UTC-3 (DST-2)
Local Time:

Weather
METAR:SBSM 191200Z 08008KT CAVOK 19/10 Q1021
TAF:SBSM 190830Z 1912/1924 12005KT CAVOK TN16/1912Z TX25/1918Z
BECMG 1916/1918 12008KT
RMK PDJ

Related Locations
Nearby:
Farthest:TKN: 12236 mi / 19692 km
Tokunoshima [Tokunoshima Airport], Satsunan Islands, 46, JP

Find:

   beyond  
but within

Other Information
Maps:
NOTAMs:
Links:
Sources:

  
  • flag of Brazil
  • flag of Rio Grande do Sul
  

Sectional Chart

Flight Planning
at skyvector.com

Satellite Image

Google Maps Satellite view

 

Copyright © 2004-2018 Karl L. Swartz. All rights reserved.
The Great Circle Mapper name and logo are trademarks of the Great Circle Mapper.
All other trademarks mentioned herein belong to their respective owners.
Please see credits for attibutions and further copyright information.

  Follow gcmap on Facebook Follow gcmap on Twitter Follow gcmap on Google+ GCmap on LinkedIn

hCard Microformat

Geo Microformat